sensor_id;sensor_type;location;lat;lon;timestamp;P1;durP1;ratioP1;P2;durP2;ratioP2
35530;SDS011;21637;53.352;-6.356;2023-05-08T00:01:35;0.10;;;0.10;;
35530;SDS011;21637;53.352;-6.356;2023-05-08T00:04:01;0.13;;;0.10;;
35530;SDS011;21637;53.352;-6.356;2023-05-08T00:06:27;1.13;;;0.20;;
35530;SDS011;21637;53.352;-6.356;2023-05-08T00:08:53;0.45;;;0.20;;
35530;SDS011;21637;53.352;-6.356;2023-05-08T00:11:19;0.80;;;0.40;;
35530;SDS011;21637;53.352;-6.356;2023-05-08T00:13:45;0.28;;;0.20;;
35530;SDS011;21637;53.352;-6.356;2023-05-08T00:16:11;0.20;;;0.08;;
35530;SDS011;21637;53.352;-6.356;2023-05-08T00:18:37;0.30;;;0.20;;
35530;SDS011;21637;53.352;-6.356;2023-05-08T00:21:04;0.28;;;0.10;;
35530;SDS011;21637;53.352;-6.356;2023-05-08T00:23:30;0.40;;;0.20;;
35530;SDS011;21637;53.352;-6.356;2023-05-08T00:25:56;0.10;;;0.10;;
35530;SDS011;21637;53.352;-6.356;2023-05-08T00:28:22;1.05;;;0.30;;
35530;SDS011;21637;53.352;-6.356;2023-05-08T00:30:48;0.68;;;0.30;;
35530;SDS011;21637;53.352;-6.356;2023-05-08T00:33:14;0.60;;;0.30;;
35530;SDS011;21637;53.352;-6.356;2023-05-08T00:35:40;1.08;;;0.47;;
35530;SDS011;21637;53.352;-6.356;2023-05-08T00:38:07;1.02;;;0.10;;
35530;SDS011;21637;53.352;-6.356;2023-05-08T00:40:33;0.35;;;0.20;;
35530;SDS011;21637;53.352;-6.356;2023-05-08T00:42:59;1.13;;;0.30;;
35530;SDS011;21637;53.352;-6.356;2023-05-08T00:45:26;0.80;;;0.50;;
35530;SDS011;21637;53.352;-6.356;2023-05-08T00:48:01;1.08;;;0.22;;
35530;SDS011;21637;53.352;-6.356;2023-05-08T00:50:28;0.30;;;0.20;;
35530;SDS011;21637;53.352;-6.356;2023-05-08T00:52:55;0.85;;;0.30;;
35530;SDS011;21637;53.352;-6.356;2023-05-08T00:55:22;1.10;;;0.30;;
35530;SDS011;21637;53.352;-6.356;2023-05-08T00:57:48;7.15;;;4.57;;
35530;SDS011;21637;53.352;-6.356;2023-05-08T01:00:15;3.78;;;1.40;;
35530;SDS011;21637;53.352;-6.356;2023-05-08T01:02:42;2.70;;;1.20;;
35530;SDS011;21637;53.352;-6.356;2023-05-08T01:05:09;2.17;;;0.50;;
35530;SDS011;21637;53.352;-6.356;2023-05-08T01:07:35;1.13;;;0.30;;
35530;SDS011;21637;53.352;-6.356;2023-05-08T01:10:03;1.00;;;0.30;;
35530;SDS011;21637;53.352;-6.356;2023-05-08T01:15:53;2.33;;;0.50;;
35530;SDS011;21637;53.352;-6.356;2023-05-08T01:18:37;2.08;;;0.40;;
35530;SDS011;21637;53.352;-6.356;2023-05-08T01:24:09;1.17;;;0.50;;
35530;SDS011;21637;53.352;-6.356;2023-05-08T01:32:54;1.13;;;0.70;;
35530;SDS011;21637;53.352;-6.356;2023-05-08T01:35:26;0.73;;;0.40;;
35530;SDS011;21637;53.352;-6.356;2023-05-08T01:38:11;0.68;;;0.50;;
35530;SDS011;21637;53.352;-6.356;2023-05-08T01:40:55;1.27;;;0.32;;
35530;SDS011;21637;53.352;-6.356;2023-05-08T01:46:18;2.13;;;0.40;;
35530;SDS011;21637;53.352;-6.356;2023-05-08T01:48:48;0.75;;;0.47;;
35530;SDS011;21637;53.352;-6.356;2023-05-08T01:51:23;0.98;;;0.60;;
35530;SDS011;21637;53.352;-6.356;2023-05-08T01:53:54;0.63;;;0.40;;
35530;SDS011;21637;53.352;-6.356;2023-05-08T01:56:22;0.22;;;0.22;;
35530;SDS011;21637;53.352;-6.356;2023-05-08T01:58:50;0.90;;;0.47;;
35530;SDS011;21637;53.352;-6.356;2023-05-08T02:01:19;1.00;;;0.47;;
35530;SDS011;21637;53.352;-6.356;2023-05-08T02:03:47;0.30;;;0.30;;
35530;SDS011;21637;53.352;-6.356;2023-05-08T02:06:14;0.93;;;0.22;;
35530;SDS011;21637;53.352;-6.356;2023-05-08T02:08:43;2.85;;;0.40;;
35530;SDS011;21637;53.352;-6.356;2023-05-08T02:11:11;0.43;;;0.35;;
35530;SDS011;21637;53.352;-6.356;2023-05-08T02:13:38;2.38;;;0.50;;
35530;SDS011;21637;53.352;-6.356;2023-05-08T02:16:08;0.45;;;0.25;;
35530;SDS011;21637;53.352;-6.356;2023-05-08T02:18:35;1.05;;;0.40;;
35530;SDS011;21637;53.352;-6.356;2023-05-08T02:21:04;0.43;;;0.40;;
35530;SDS011;21637;53.352;-6.356;2023-05-08T02:23:32;0.70;;;0.50;;
35530;SDS011;21637;53.352;-6.356;2023-05-08T02:25:59;1.20;;;0.40;;
35530;SDS011;21637;53.352;-6.356;2023-05-08T02:28:28;1.75;;;0.45;;
35530;SDS011;21637;53.352;-6.356;2023-05-08T02:30:55;1.95;;;0.50;;
35530;SDS011;21637;53.352;-6.356;2023-05-08T02:33:24;0.77;;;0.38;;
35530;SDS011;21637;53.352;-6.356;2023-05-08T02:35:53;0.55;;;0.30;;
35530;SDS011;21637;53.352;-6.356;2023-05-08T02:38:23;0.60;;;0.40;;
35530;SDS011;21637;53.352;-6.356;2023-05-08T02:40:52;0.55;;;0.55;;
35530;SDS011;21637;53.352;-6.356;2023-05-08T02:43:21;0.52;;;0.35;;
35530;SDS011;21637;53.352;-6.356;2023-05-08T02:45:48;0.38;;;0.38;;
35530;SDS011;21637;53.352;-6.356;2023-05-08T02:48:59;0.55;;;0.38;;
35530;SDS011;21637;53.352;-6.356;2023-05-08T02:51:19;0.73;;;0.43;;
35530;SDS011;21637;53.352;-6.356;2023-05-08T02:54:09;0.75;;;0.38;;
35530;SDS011;21637;53.352;-6.356;2023-05-08T03:03:04;0.65;;;0.50;;
35530;SDS011;21637;53.352;-6.356;2023-05-08T03:05:36;0.28;;;0.20;;
35530;SDS011;21637;53.352;-6.356;2023-05-08T03:08:09;0.00;;;0.00;;
35530;SDS011;21637;53.352;-6.356;2023-05-08T03:10:39;0.28;;;0.28;;
35530;SDS011;21637;53.352;-6.356;2023-05-08T03:13:08;1.75;;;0.30;;
35530;SDS011;21637;53.352;-6.356;2023-05-08T03:15:36;0.95;;;0.47;;
35530;SDS011;21637;53.352;-6.356;2023-05-08T03:18:12;0.20;;;0.20;;
35530;SDS011;21637;53.352;-6.356;2023-05-08T03:20:45;1.77;;;0.40;;
35530;SDS011;21637;53.352;-6.356;2023-05-08T03:23:14;0.87;;;0.30;;
35530;SDS011;21637;53.352;-6.356;2023-05-08T03:25:44;0.30;;;0.15;;
35530;SDS011;21637;53.352;-6.356;2023-05-08T03:28:10;1.20;;;0.40;;
35530;SDS011;21637;53.352;-6.356;2023-05-08T03:30:39;0.63;;;0.20;;
35530;SDS011;21637;53.352;-6.356;2023-05-08T03:33:06;0.22;;;0.22;;
35530;SDS011;21637;53.352;-6.356;2023-05-08T03:35:37;0.20;;;0.20;;
35530;SDS011;21637;53.352;-6.356;2023-05-08T03:38:04;0.30;;;0.30;;
35530;SDS011;21637;53.352;-6.356;2023-05-08T03:40:31;0.95;;;0.50;;
35530;SDS011;21637;53.352;-6.356;2023-05-08T03:43:02;0.50;;;0.50;;
35530;SDS011;21637;53.352;-6.356;2023-05-08T03:45:33;1.75;;;0.40;;
35530;SDS011;21637;53.352;-6.356;2023-05-08T03:48:00;0.75;;;0.57;;
35530;SDS011;21637;53.352;-6.356;2023-05-08T03:50:28;1.58;;;0.45;;
35530;SDS011;21637;53.352;-6.356;2023-05-08T03:52:55;1.63;;;0.65;;
35530;SDS011;21637;53.352;-6.356;2023-05-08T03:55:22;0.80;;;0.70;;
35530;SDS011;21637;53.352;-6.356;2023-05-08T03:57:49;0.93;;;0.80;;
35530;SDS011;21637;53.352;-6.356;2023-05-08T04:00:40;0.70;;;0.68;;
35530;SDS011;21637;53.352;-6.356;2023-05-08T04:03:18;1.17;;;0.63;;
35530;SDS011;21637;53.352;-6.356;2023-05-08T04:05:57;1.08;;;0.70;;
35530;SDS011;21637;53.352;-6.356;2023-05-08T04:08:38;0.93;;;0.73;;
35530;SDS011;21637;53.352;-6.356;2023-05-08T04:13:48;0.70;;;0.70;;
35530;SDS011;21637;53.352;-6.356;2023-05-08T04:16:25;2.38;;;0.93;;
35530;SDS011;21637;53.352;-6.356;2023-05-08T04:19:00;0.82;;;0.70;;
35530;SDS011;21637;53.352;-6.356;2023-05-08T04:21:28;3.10;;;0.80;;
35530;SDS011;21637;53.352;-6.356;2023-05-08T04:23:56;2.58;;;0.60;;
35530;SDS011;21637;53.352;-6.356;2023-05-08T04:26:22;2.60;;;0.75;;
35530;SDS011;21637;53.352;-6.356;2023-05-08T04:28:49;1.23;;;0.82;;
35530;SDS011;21637;53.352;-6.356;2023-05-08T04:31:15;1.55;;;0.60;;
35530;SDS011;21637;53.352;-6.356;2023-05-08T04:33:43;2.30;;;0.70;;
35530;SDS011;21637;53.352;-6.356;2023-05-08T04:36:12;1.20;;;0.50;;
35530;SDS011;21637;53.352;-6.356;2023-05-08T04:38:39;1.15;;;0.45;;
35530;SDS011;21637;53.352;-6.356;2023-05-08T04:41:05;1.05;;;0.60;;
35530;SDS011;21637;53.352;-6.356;2023-05-08T04:43:31;0.32;;;0.30;;
35530;SDS011;21637;53.352;-6.356;2023-05-08T04:45:58;0.57;;;0.30;;
35530;SDS011;21637;53.352;-6.356;2023-05-08T04:48:23;0.40;;;0.40;;
35530;SDS011;21637;53.352;-6.356;2023-05-08T04:50:49;1.85;;;0.52;;
35530;SDS011;21637;53.352;-6.356;2023-05-08T04:53:15;1.38;;;0.60;;
35530;SDS011;21637;53.352;-6.356;2023-05-08T04:55:41;2.67;;;0.60;;
35530;SDS011;21637;53.352;-6.356;2023-05-08T04:58:07;1.05;;;0.50;;
35530;SDS011;21637;53.352;-6.356;2023-05-08T05:00:35;0.70;;;0.40;;
35530;SDS011;21637;53.352;-6.356;2023-05-08T05:03:00;1.55;;;0.50;;
35530;SDS011;21637;53.352;-6.356;2023-05-08T05:05:26;0.73;;;0.70;;
35530;SDS011;21637;53.352;-6.356;2023-05-08T05:07:52;1.73;;;0.50;;
35530;SDS011;21637;53.352;-6.356;2023-05-08T05:10:17;0.63;;;0.40;;
35530;SDS011;21637;53.352;-6.356;2023-05-08T05:12:43;0.43;;;0.32;;
35530;SDS011;21637;53.352;-6.356;2023-05-08T05:15:09;0.63;;;0.32;;
35530;SDS011;21637;53.352;-6.356;2023-05-08T05:17:35;0.60;;;0.40;;
35530;SDS011;21637;53.352;-6.356;2023-05-08T05:20:01;0.60;;;0.52;;
35530;SDS011;21637;53.352;-6.356;2023-05-08T05:22:27;2.88;;;0.75;;
35530;SDS011;21637;53.352;-6.356;2023-05-08T05:24:52;1.00;;;0.40;;
35530;SDS011;21637;53.352;-6.356;2023-05-08T05:27:18;0.60;;;0.40;;
35530;SDS011;21637;53.352;-6.356;2023-05-08T05:29:44;1.80;;;0.28;;
35530;SDS011;21637;53.352;-6.356;2023-05-08T05:32:10;0.63;;;0.32;;
35530;SDS011;21637;53.352;-6.356;2023-05-08T05:34:36;0.25;;;0.20;;
35530;SDS011;21637;53.352;-6.356;2023-05-08T05:37:01;0.68;;;0.40;;
35530;SDS011;21637;53.352;-6.356;2023-05-08T05:39:27;0.70;;;0.40;;
35530;SDS011;21637;53.352;-6.356;2023-05-08T05:41:53;0.63;;;0.43;;
35530;SDS011;21637;53.352;-6.356;2023-05-08T05:44:19;0.20;;;0.20;;
35530;SDS011;21637;53.352;-6.356;2023-05-08T05:46:44;1.27;;;0.40;;
35530;SDS011;21637;53.352;-6.356;2023-05-08T05:49:10;2.10;;;0.57;;
35530;SDS011;21637;53.352;-6.356;2023-05-08T05:51:36;0.50;;;0.50;;
35530;SDS011;21637;53.352;-6.356;2023-05-08T05:54:02;0.60;;;0.60;;
35530;SDS011;21637;53.352;-6.356;2023-05-08T05:56:27;0.75;;;0.45;;
35530;SDS011;21637;53.352;-6.356;2023-05-08T05:58:53;0.30;;;0.30;;
35530;SDS011;21637;53.352;-6.356;2023-05-08T06:01:19;0.43;;;0.40;;
35530;SDS011;21637;53.352;-6.356;2023-05-08T06:03:45;1.05;;;0.40;;
35530;SDS011;21637;53.352;-6.356;2023-05-08T06:06:11;0.40;;;0.35;;
35530;SDS011;21637;53.352;-6.356;2023-05-08T06:08:37;1.00;;;0.60;;
35530;SDS011;21637;53.352;-6.356;2023-05-08T06:11:02;3.28;;;0.50;;
35530;SDS011;21637;53.352;-6.356;2023-05-08T06:13:28;1.10;;;0.68;;
35530;SDS011;21637;53.352;-6.356;2023-05-08T06:15:55;0.65;;;0.50;;
35530;SDS011;21637;53.352;-6.356;2023-05-08T06:18:21;1.08;;;0.40;;
35530;SDS011;21637;53.352;-6.356;2023-05-08T06:20:47;0.75;;;0.43;;
35530;SDS011;21637;53.352;-6.356;2023-05-08T06:23:12;0.68;;;0.50;;
35530;SDS011;21637;53.352;-6.356;2023-05-08T06:25:38;1.92;;;0.28;;
35530;SDS011;21637;53.352;-6.356;2023-05-08T06:28:04;1.95;;;0.40;;
35530;SDS011;21637;53.352;-6.356;2023-05-08T06:30:32;2.20;;;0.43;;
35530;SDS011;21637;53.352;-6.356;2023-05-08T06:32:58;0.90;;;0.65;;
35530;SDS011;21637;53.352;-6.356;2023-05-08T06:35:24;0.75;;;0.43;;
35530;SDS011;21637;53.352;-6.356;2023-05-08T06:37:50;2.47;;;0.45;;
35530;SDS011;21637;53.352;-6.356;2023-05-08T06:40:16;1.17;;;0.47;;
35530;SDS011;21637;53.352;-6.356;2023-05-08T06:42:41;0.85;;;0.60;;
35530;SDS011;21637;53.352;-6.356;2023-05-08T06:45:07;0.43;;;0.40;;
35530;SDS011;21637;53.352;-6.356;2023-05-08T06:47:33;0.57;;;0.40;;
35530;SDS011;21637;53.352;-6.356;2023-05-08T06:49:59;0.82;;;0.52;;
35530;SDS011;21637;53.352;-6.356;2023-05-08T06:52:25;0.88;;;0.55;;
35530;SDS011;21637;53.352;-6.356;2023-05-08T06:54:51;1.98;;;0.40;;
35530;SDS011;21637;53.352;-6.356;2023-05-08T06:57:16;3.13;;;0.60;;
35530;SDS011;21637;53.352;-6.356;2023-05-08T06:59:42;0.95;;;0.45;;
35530;SDS011;21637;53.352;-6.356;2023-05-08T07:02:08;2.10;;;0.60;;
35530;SDS011;21637;53.352;-6.356;2023-05-08T07:04:34;0.30;;;0.30;;
35530;SDS011;21637;53.352;-6.356;2023-05-08T07:07:01;1.65;;;0.50;;
35530;SDS011;21637;53.352;-6.356;2023-05-08T07:09:27;1.52;;;0.60;;
35530;SDS011;21637;53.352;-6.356;2023-05-08T07:11:52;1.38;;;0.47;;
35530;SDS011;21637;53.352;-6.356;2023-05-08T07:14:18;1.52;;;0.50;;
35530;SDS011;21637;53.352;-6.356;2023-05-08T07:16:44;1.67;;;0.50;;
35530;SDS011;21637;53.352;-6.356;2023-05-08T07:19:10;2.28;;;0.60;;
35530;SDS011;21637;53.352;-6.356;2023-05-08T07:21:35;1.83;;;0.57;;
35530;SDS011;21637;53.352;-6.356;2023-05-08T07:24:02;0.60;;;0.45;;
35530;SDS011;21637;53.352;-6.356;2023-05-08T07:26:28;1.13;;;0.60;;
35530;SDS011;21637;53.352;-6.356;2023-05-08T07:28:54;0.93;;;0.40;;
35530;SDS011;21637;53.352;-6.356;2023-05-08T07:31:20;0.50;;;0.40;;
35530;SDS011;21637;53.352;-6.356;2023-05-08T07:33:46;1.92;;;0.50;;
35530;SDS011;21637;53.352;-6.356;2023-05-08T07:36:12;1.58;;;0.30;;
35530;SDS011;21637;53.352;-6.356;2023-05-08T07:38:37;1.02;;;0.40;;
35530;SDS011;21637;53.352;-6.356;2023-05-08T07:41:03;0.57;;;0.25;;
35530;SDS011;21637;53.352;-6.356;2023-05-08T07:43:29;0.73;;;0.30;;
35530;SDS011;21637;53.352;-6.356;2023-05-08T07:45:56;0.70;;;0.50;;
35530;SDS011;21637;53.352;-6.356;2023-05-08T07:48:22;2.75;;;0.47;;
35530;SDS011;21637;53.352;-6.356;2023-05-08T07:50:48;1.35;;;0.43;;
35530;SDS011;21637;53.352;-6.356;2023-05-08T07:53:14;0.65;;;0.43;;
35530;SDS011;21637;53.352;-6.356;2023-05-08T07:55:40;3.05;;;0.40;;
35530;SDS011;21637;53.352;-6.356;2023-05-08T07:58:06;0.90;;;0.32;;
35530;SDS011;21637;53.352;-6.356;2023-05-08T08:00:32;1.40;;;0.50;;
35530;SDS011;21637;53.352;-6.356;2023-05-08T08:02:57;1.20;;;0.77;;
35530;SDS011;21637;53.352;-6.356;2023-05-08T08:05:23;1.45;;;0.30;;
35530;SDS011;21637;53.352;-6.356;2023-05-08T08:07:49;2.25;;;0.30;;
35530;SDS011;21637;53.352;-6.356;2023-05-08T08:10:15;1.38;;;0.40;;
35530;SDS011;21637;53.352;-6.356;2023-05-08T08:12:41;0.65;;;0.32;;
35530;SDS011;21637;53.352;-6.356;2023-05-08T08:15:07;0.40;;;0.40;;
35530;SDS011;21637;53.352;-6.356;2023-05-08T08:17:33;0.50;;;0.50;;
35530;SDS011;21637;53.352;-6.356;2023-05-08T08:19:59;0.63;;;0.40;;
35530;SDS011;21637;53.352;-6.356;2023-05-08T08:22:25;0.30;;;0.28;;
35530;SDS011;21637;53.352;-6.356;2023-05-08T08:24:51;0.20;;;0.20;;
35530;SDS011;21637;53.352;-6.356;2023-05-08T08:27:18;1.65;;;0.40;;
35530;SDS011;21637;53.352;-6.356;2023-05-08T08:29:44;1.75;;;0.47;;
35530;SDS011;21637;53.352;-6.356;2023-05-08T08:32:10;1.15;;;0.38;;
35530;SDS011;21637;53.352;-6.356;2023-05-08T08:34:36;2.35;;;0.73;;
35530;SDS011;21637;53.352;-6.356;2023-05-08T08:37:03;0.88;;;0.40;;
35530;SDS011;21637;53.352;-6.356;2023-05-08T08:39:33;1.02;;;0.50;;
35530;SDS011;21637;53.352;-6.356;2023-05-08T08:42:00;0.70;;;0.60;;
35530;SDS011;21637;53.352;-6.356;2023-05-08T08:44:25;0.65;;;0.50;;
35530;SDS011;21637;53.352;-6.356;2023-05-08T08:46:52;0.30;;;0.30;;
35530;SDS011;21637;53.352;-6.356;2023-05-08T08:49:18;0.30;;;0.25;;
35530;SDS011;21637;53.352;-6.356;2023-05-08T08:51:55;1.67;;;0.35;;
35530;SDS011;21637;53.352;-6.356;2023-05-08T08:54:43;0.55;;;0.43;;
35530;SDS011;21637;53.352;-6.356;2023-05-08T08:57:10;0.52;;;0.30;;
35530;SDS011;21637;53.352;-6.356;2023-05-08T08:59:37;1.60;;;0.47;;
35530;SDS011;21637;53.352;-6.356;2023-05-08T09:02:13;0.52;;;0.52;;
35530;SDS011;21637;53.352;-6.356;2023-05-08T09:04:42;0.38;;;0.30;;
35530;SDS011;21637;53.352;-6.356;2023-05-08T09:07:08;1.95;;;0.45;;
35530;SDS011;21637;53.352;-6.356;2023-05-08T09:09:37;2.03;;;0.60;;
35530;SDS011;21637;53.352;-6.356;2023-05-08T09:12:08;0.40;;;0.40;;
35530;SDS011;21637;53.352;-6.356;2023-05-08T09:14:34;0.60;;;0.55;;
35530;SDS011;21637;53.352;-6.356;2023-05-08T09:17:00;0.60;;;0.60;;
35530;SDS011;21637;53.352;-6.356;2023-05-08T09:19:26;1.75;;;0.90;;
35530;SDS011;21637;53.352;-6.356;2023-05-08T09:21:53;0.98;;;0.70;;
35530;SDS011;21637;53.352;-6.356;2023-05-08T09:24:19;0.73;;;0.73;;
35530;SDS011;21637;53.352;-6.356;2023-05-08T09:26:44;0.63;;;0.63;;
35530;SDS011;21637;53.352;-6.356;2023-05-08T09:29:14;1.17;;;0.63;;
35530;SDS011;21637;53.352;-6.356;2023-05-08T09:31:47;0.52;;;0.52;;
35530;SDS011;21637;53.352;-6.356;2023-05-08T09:34:21;2.38;;;1.80;;
35530;SDS011;21637;53.352;-6.356;2023-05-08T09:39:40;2.13;;;0.80;;
35530;SDS011;21637;53.352;-6.356;2023-05-08T09:42:07;1.40;;;0.82;;
35530;SDS011;21637;53.352;-6.356;2023-05-08T09:44:43;0.63;;;0.50;;
35530;SDS011;21637;53.352;-6.356;2023-05-08T09:47:17;2.45;;;0.77;;
35530;SDS011;21637;53.352;-6.356;2023-05-08T09:52:23;0.90;;;0.50;;
35530;SDS011;21637;53.352;-6.356;2023-05-08T09:54:56;1.95;;;0.77;;
35530;SDS011;21637;53.352;-6.356;2023-05-08T09:57:24;3.50;;;0.80;;
35530;SDS011;21637;53.352;-6.356;2023-05-08T10:00:04;2.22;;;1.02;;
35530;SDS011;21637;53.352;-6.356;2023-05-08T10:02:34;1.25;;;0.70;;
35530;SDS011;21637;53.352;-6.356;2023-05-08T10:05:02;2.17;;;0.77;;
35530;SDS011;21637;53.352;-6.356;2023-05-08T10:07:30;2.17;;;1.13;;
35530;SDS011;21637;53.352;-6.356;2023-05-08T10:09:58;2.60;;;1.27;;
35530;SDS011;21637;53.352;-6.356;2023-05-08T10:12:25;2.05;;;1.10;;
35530;SDS011;21637;53.352;-6.356;2023-05-08T10:14:52;1.40;;;1.25;;
35530;SDS011;21637;53.352;-6.356;2023-05-08T10:17:19;3.97;;;2.22;;
35530;SDS011;21637;53.352;-6.356;2023-05-08T10:19:59;1.83;;;0.90;;
35530;SDS011;21637;53.352;-6.356;2023-05-08T10:22:33;5.00;;;1.20;;
35530;SDS011;21637;53.352;-6.356;2023-05-08T10:25:02;1.15;;;0.82;;
35530;SDS011;21637;53.352;-6.356;2023-05-08T10:27:40;1.27;;;1.00;;
35530;SDS011;21637;53.352;-6.356;2023-05-08T10:30:12;1.77;;;1.40;;
35530;SDS011;21637;53.352;-6.356;2023-05-08T10:32:44;3.40;;;1.10;;
35530;SDS011;21637;53.352;-6.356;2023-05-08T10:35:13;2.55;;;0.90;;
35530;SDS011;21637;53.352;-6.356;2023-05-08T10:37:39;1.30;;;0.90;;
35530;SDS011;21637;53.352;-6.356;2023-05-08T10:40:06;1.60;;;0.73;;
35530;SDS011;21637;53.352;-6.356;2023-05-08T10:42:33;2.22;;;0.82;;
35530;SDS011;21637;53.352;-6.356;2023-05-08T10:45:01;3.10;;;0.70;;
35530;SDS011;21637;53.352;-6.356;2023-05-08T10:50:21;2.08;;;0.90;;
35530;SDS011;21637;53.352;-6.356;2023-05-08T10:55:40;1.90;;;0.85;;
35530;SDS011;21637;53.352;-6.356;2023-05-08T11:03:23;2.40;;;0.82;;
35530;SDS011;21637;53.352;-6.356;2023-05-08T11:05:53;2.00;;;1.00;;
35530;SDS011;21637;53.352;-6.356;2023-05-08T11:08:21;2.20;;;0.90;;
35530;SDS011;21637;53.352;-6.356;2023-05-08T11:19:19;3.58;;;1.02;;
35530;SDS011;21637;53.352;-6.356;2023-05-08T11:24:38;3.97;;;1.27;;
35530;SDS011;21637;53.352;-6.356;2023-05-08T11:27:04;2.67;;;1.20;;
35530;SDS011;21637;53.352;-6.356;2023-05-08T11:29:30;4.07;;;1.20;;
35530;SDS011;21637;53.352;-6.356;2023-05-08T11:31:56;2.15;;;1.10;;
35530;SDS011;21637;53.352;-6.356;2023-05-08T11:37:22;4.60;;;1.10;;
35530;SDS011;21637;53.352;-6.356;2023-05-08T11:39:49;2.25;;;1.10;;
35530;SDS011;21637;53.352;-6.356;2023-05-08T11:44:59;3.03;;;1.10;;
35530;SDS011;21637;53.352;-6.356;2023-05-08T11:47:39;2.15;;;1.25;;
35530;SDS011;21637;53.352;-6.356;2023-05-08T11:50:09;3.78;;;1.23;;
35530;SDS011;21637;53.352;-6.356;2023-05-08T11:52:37;2.95;;;1.13;;
35530;SDS011;21637;53.352;-6.356;2023-05-08T11:55:05;5.93;;;1.15;;
35530;SDS011;21637;53.352;-6.356;2023-05-08T11:57:37;2.10;;;1.20;;
35530;SDS011;21637;53.352;-6.356;2023-05-08T12:00:09;2.25;;;1.02;;
35530;SDS011;21637;53.352;-6.356;2023-05-08T12:02:37;3.85;;;1.40;;
35530;SDS011;21637;53.352;-6.356;2023-05-08T12:05:03;6.15;;;1.58;;
35530;SDS011;21637;53.352;-6.356;2023-05-08T12:07:30;4.57;;;1.00;;
35530;SDS011;21637;53.352;-6.356;2023-05-08T12:09:56;3.33;;;1.00;;
35530;SDS011;21637;53.352;-6.356;2023-05-08T12:12:21;1.60;;;0.65;;
35530;SDS011;21637;53.352;-6.356;2023-05-08T12:14:50;4.15;;;1.23;;
35530;SDS011;21637;53.352;-6.356;2023-05-08T12:17:16;4.60;;;1.13;;
35530;SDS011;21637;53.352;-6.356;2023-05-08T12:19:45;3.13;;;1.10;;
35530;SDS011;21637;53.352;-6.356;2023-05-08T12:22:10;1.90;;;0.82;;
35530;SDS011;21637;53.352;-6.356;2023-05-08T12:24:37;2.25;;;0.85;;
35530;SDS011;21637;53.352;-6.356;2023-05-08T12:27:03;3.97;;;1.00;;
35530;SDS011;21637;53.352;-6.356;2023-05-08T12:29:29;3.58;;;1.15;;
35530;SDS011;21637;53.352;-6.356;2023-05-08T12:31:59;2.08;;;1.17;;
35530;SDS011;21637;53.352;-6.356;2023-05-08T12:34:25;1.40;;;1.10;;
35530;SDS011;21637;53.352;-6.356;2023-05-08T12:37:00;2.83;;;0.88;;
35530;SDS011;21637;53.352;-6.356;2023-05-08T12:39:26;2.70;;;0.85;;
35530;SDS011;21637;53.352;-6.356;2023-05-08T12:41:52;2.20;;;0.93;;
35530;SDS011;21637;53.352;-6.356;2023-05-08T12:46:45;3.55;;;1.00;;
35530;SDS011;21637;53.352;-6.356;2023-05-08T12:49:48;2.60;;;1.00;;
35530;SDS011;21637;53.352;-6.356;2023-05-08T12:52:08;3.15;;;1.00;;
35530;SDS011;21637;53.352;-6.356;2023-05-08T12:54:38;2.90;;;1.00;;
35530;SDS011;21637;53.352;-6.356;2023-05-08T12:57:08;3.80;;;1.00;;
35530;SDS011;21637;53.352;-6.356;2023-05-08T12:59:35;5.28;;;1.20;;
35530;SDS011;21637;53.352;-6.356;2023-05-08T13:02:01;4.00;;;1.20;;
35530;SDS011;21637;53.352;-6.356;2023-05-08T13:04:28;2.50;;;0.90;;
35530;SDS011;21637;53.352;-6.356;2023-05-08T13:06:54;2.83;;;0.70;;
35530;SDS011;21637;53.352;-6.356;2023-05-08T13:09:20;3.90;;;1.23;;
35530;SDS011;21637;53.352;-6.356;2023-05-08T13:11:47;3.65;;;1.00;;
35530;SDS011;21637;53.352;-6.356;2023-05-08T13:14:14;1.90;;;0.80;;
35530;SDS011;21637;53.352;-6.356;2023-05-08T13:16:43;2.55;;;1.17;;
35530;SDS011;21637;53.352;-6.356;2023-05-08T13:19:09;4.05;;;1.00;;
35530;SDS011;21637;53.352;-6.356;2023-05-08T13:21:35;2.70;;;1.00;;
35530;SDS011;21637;53.352;-6.356;2023-05-08T13:24:01;3.00;;;1.10;;
35530;SDS011;21637;53.352;-6.356;2023-05-08T13:26:26;3.22;;;1.02;;
35530;SDS011;21637;53.352;-6.356;2023-05-08T13:28:52;2.60;;;1.00;;
35530;SDS011;21637;53.352;-6.356;2023-05-08T13:31:18;4.20;;;1.20;;
35530;SDS011;21637;53.352;-6.356;2023-05-08T13:33:44;2.45;;;1.17;;
35530;SDS011;21637;53.352;-6.356;2023-05-08T13:36:09;1.85;;;1.13;;
35530;SDS011;21637;53.352;-6.356;2023-05-08T13:38:35;3.05;;;0.90;;
35530;SDS011;21637;53.352;-6.356;2023-05-08T13:41:01;5.20;;;1.10;;
35530;SDS011;21637;53.352;-6.356;2023-05-08T13:43:26;3.72;;;1.08;;
35530;SDS011;21637;53.352;-6.356;2023-05-08T13:45:52;4.43;;;1.00;;
35530;SDS011;21637;53.352;-6.356;2023-05-08T13:48:18;3.70;;;0.95;;
35530;SDS011;21637;53.352;-6.356;2023-05-08T13:50:44;3.83;;;1.33;;
35530;SDS011;21637;53.352;-6.356;2023-05-08T13:53:10;2.97;;;1.13;;
35530;SDS011;21637;53.352;-6.356;2023-05-08T13:55:35;3.65;;;1.10;;
35530;SDS011;21637;53.352;-6.356;2023-05-08T13:58:01;2.67;;;0.85;;
35530;SDS011;21637;53.352;-6.356;2023-05-08T14:00:27;2.95;;;1.10;;
35530;SDS011;21637;53.352;-6.356;2023-05-08T14:02:52;3.72;;;1.20;;
35530;SDS011;21637;53.352;-6.356;2023-05-08T14:05:18;3.25;;;1.27;;
35530;SDS011;21637;53.352;-6.356;2023-05-08T14:07:44;2.72;;;1.02;;
35530;SDS011;21637;53.352;-6.356;2023-05-08T14:10:10;3.83;;;1.10;;
35530;SDS011;21637;53.352;-6.356;2023-05-08T14:12:36;3.10;;;1.20;;
35530;SDS011;21637;53.352;-6.356;2023-05-08T14:15:02;4.68;;;1.20;;
35530;SDS011;21637;53.352;-6.356;2023-05-08T14:17:29;2.60;;;1.20;;
35530;SDS011;21637;53.352;-6.356;2023-05-08T14:19:54;2.40;;;1.02;;
35530;SDS011;21637;53.352;-6.356;2023-05-08T14:22:20;3.22;;;1.38;;
35530;SDS011;21637;53.352;-6.356;2023-05-08T14:24:46;2.85;;;1.25;;
35530;SDS011;21637;53.352;-6.356;2023-05-08T14:27:12;2.65;;;1.42;;
35530;SDS011;21637;53.352;-6.356;2023-05-08T14:29:37;3.60;;;1.10;;
35530;SDS011;21637;53.352;-6.356;2023-05-08T14:32:03;5.70;;;1.30;;
35530;SDS011;21637;53.352;-6.356;2023-05-08T14:34:34;2.60;;;1.00;;
35530;SDS011;21637;53.352;-6.356;2023-05-08T14:37:00;5.25;;;1.63;;
35530;SDS011;21637;53.352;-6.356;2023-05-08T14:39:26;2.95;;;1.20;;
35530;SDS011;21637;53.352;-6.356;2023-05-08T14:41:52;6.55;;;1.17;;
35530;SDS011;21637;53.352;-6.356;2023-05-08T14:44:18;3.33;;;1.50;;
35530;SDS011;21637;53.352;-6.356;2023-05-08T14:46:43;5.53;;;1.25;;
35530;SDS011;21637;53.352;-6.356;2023-05-08T14:49:09;4.50;;;1.30;;
35530;SDS011;21637;53.352;-6.356;2023-05-08T14:51:35;4.65;;;1.05;;
35530;SDS011;21637;53.352;-6.356;2023-05-08T14:54:00;4.10;;;1.33;;
35530;SDS011;21637;53.352;-6.356;2023-05-08T14:56:26;3.22;;;1.23;;
35530;SDS011;21637;53.352;-6.356;2023-05-08T14:58:52;2.25;;;1.08;;
35530;SDS011;21637;53.352;-6.356;2023-05-08T15:01:19;4.65;;;1.35;;
35530;SDS011;21637;53.352;-6.356;2023-05-08T15:03:46;4.60;;;1.20;;
35530;SDS011;21637;53.352;-6.356;2023-05-08T15:06:17;2.83;;;1.20;;
35530;SDS011;21637;53.352;-6.356;2023-05-08T15:08:47;3.80;;;1.10;;
35530;SDS011;21637;53.352;-6.356;2023-05-08T15:11:13;3.92;;;1.30;;
35530;SDS011;21637;53.352;-6.356;2023-05-08T15:13:39;3.58;;;1.33;;
35530;SDS011;21637;53.352;-6.356;2023-05-08T15:16:04;4.93;;;1.30;;
35530;SDS011;21637;53.352;-6.356;2023-05-08T15:18:30;3.88;;;1.30;;
35530;SDS011;21637;53.352;-6.356;2023-05-08T15:20:56;3.83;;;1.02;;
35530;SDS011;21637;53.352;-6.356;2023-05-08T15:23:23;2.92;;;1.27;;
35530;SDS011;21637;53.352;-6.356;2023-05-08T15:25:52;7.20;;;1.50;;
35530;SDS011;21637;53.352;-6.356;2023-05-08T15:28:18;4.13;;;1.23;;
35530;SDS011;21637;53.352;-6.356;2023-05-08T15:30:44;5.20;;;1.35;;
35530;SDS011;21637;53.352;-6.356;2023-05-08T15:33:10;4.88;;;1.30;;
35530;SDS011;21637;53.352;-6.356;2023-05-08T15:35:36;4.70;;;1.60;;
35530;SDS011;21637;53.352;-6.356;2023-05-08T15:38:02;3.45;;;1.35;;